sensor_id;sensor_type;location;lat;lon;timestamp;P1;durP1;ratioP1;P2;durP2;ratioP2
651;SDS011;310;48.490;9.200;2022-08-04T00:00:28;10.17;;;5.90;;
651;SDS011;310;48.490;9.200;2022-08-04T00:10:51;14.73;;;5.77;;
651;SDS011;310;48.490;9.200;2022-08-04T00:13:22;12.33;;;8.33;;
651;SDS011;310;48.490;9.200;2022-08-04T00:15:51;9.50;;;6.37;;
651;SDS011;310;48.490;9.200;2022-08-04T00:18:30;12.77;;;5.83;;
651;SDS011;310;48.490;9.200;2022-08-04T00:21:03;16.27;;;5.83;;
651;SDS011;310;48.490;9.200;2022-08-04T00:23:33;13.87;;;5.97;;
651;SDS011;310;48.490;9.200;2022-08-04T00:26:00;11.10;;;5.60;;
651;SDS011;310;48.490;9.200;2022-08-04T00:28:26;11.53;;;5.93;;
651;SDS011;310;48.490;9.200;2022-08-04T00:30:53;13.00;;;6.10;;
651;SDS011;310;48.490;9.200;2022-08-04T00:33:19;9.90;;;6.50;;
651;SDS011;310;48.490;9.200;2022-08-04T00:35:46;18.47;;;7.07;;
651;SDS011;310;48.490;9.200;2022-08-04T00:38:14;7.60;;;6.47;;
651;SDS011;310;48.490;9.200;2022-08-04T00:43:34;6.90;;;5.50;;
651;SDS011;310;48.490;9.200;2022-08-04T01:00:12;7.83;;;5.23;;
651;SDS011;310;48.490;9.200;2022-08-04T01:11:06;14.57;;;6.40;;
651;SDS011;310;48.490;9.200;2022-08-04T01:16:30;13.13;;;5.53;;
651;SDS011;310;48.490;9.200;2022-08-04T01:19:00;6.23;;;5.30;;
651;SDS011;310;48.490;9.200;2022-08-04T01:29:08;6.90;;;4.87;;
651;SDS011;310;48.490;9.200;2022-08-04T01:31:45;7.33;;;4.73;;
651;SDS011;310;48.490;9.200;2022-08-04T01:34:18;9.40;;;4.30;;
651;SDS011;310;48.490;9.200;2022-08-04T01:36:58;5.70;;;4.30;;
651;SDS011;310;48.490;9.200;2022-08-04T01:39:33;6.83;;;4.57;;
651;SDS011;310;48.490;9.200;2022-08-04T01:42:06;8.83;;;4.50;;
651;SDS011;310;48.490;9.200;2022-08-04T01:44:34;6.57;;;4.40;;
651;SDS011;310;48.490;9.200;2022-08-04T01:47:01;10.77;;;4.83;;
651;SDS011;310;48.490;9.200;2022-08-04T01:49:31;6.97;;;4.77;;
651;SDS011;310;48.490;9.200;2022-08-04T01:51:57;6.93;;;4.77;;
651;SDS011;310;48.490;9.200;2022-08-04T01:54:23;6.70;;;4.40;;
651;SDS011;310;48.490;9.200;2022-08-04T01:56:50;6.77;;;4.73;;
651;SDS011;310;48.490;9.200;2022-08-04T01:59:18;10.40;;;5.00;;
651;SDS011;310;48.490;9.200;2022-08-04T02:01:44;9.10;;;5.57;;
651;SDS011;310;48.490;9.200;2022-08-04T02:04:14;11.10;;;5.10;;
651;SDS011;310;48.490;9.200;2022-08-04T02:09:29;10.40;;;5.13;;
651;SDS011;310;48.490;9.200;2022-08-04T02:14:52;9.93;;;6.50;;
651;SDS011;310;48.490;9.200;2022-08-04T02:18:08;12.00;;;6.20;;
651;SDS011;310;48.490;9.200;2022-08-04T02:20:38;8.93;;;5.97;;
651;SDS011;310;48.490;9.200;2022-08-04T02:23:14;12.33;;;6.70;;
651;SDS011;310;48.490;9.200;2022-08-04T02:25:48;10.30;;;7.63;;
651;SDS011;310;48.490;9.200;2022-08-04T02:31:03;11.60;;;6.37;;
651;SDS011;310;48.490;9.200;2022-08-04T02:33:43;8.00;;;5.73;;
651;SDS011;310;48.490;9.200;2022-08-04T02:36:21;8.53;;;5.10;;
651;SDS011;310;48.490;9.200;2022-08-04T02:39:00;7.10;;;5.30;;
651;SDS011;310;48.490;9.200;2022-08-04T02:41:28;18.97;;;5.67;;
651;SDS011;310;48.490;9.200;2022-08-04T02:43:55;8.40;;;5.90;;
651;SDS011;310;48.490;9.200;2022-08-04T02:46:23;7.90;;;5.63;;
651;SDS011;310;48.490;9.200;2022-08-04T02:48:49;7.47;;;5.63;;
651;SDS011;310;48.490;9.200;2022-08-04T02:51:19;6.33;;;5.10;;
651;SDS011;310;48.490;9.200;2022-08-04T02:53:48;7.60;;;5.60;;
651;SDS011;310;48.490;9.200;2022-08-04T02:56:18;8.57;;;5.87;;
651;SDS011;310;48.490;9.200;2022-08-04T02:58:45;7.77;;;5.47;;
651;SDS011;310;48.490;9.200;2022-08-04T03:01:15;10.13;;;5.80;;
651;SDS011;310;48.490;9.200;2022-08-04T03:03:51;8.30;;;6.03;;
651;SDS011;310;48.490;9.200;2022-08-04T03:29:21;10.10;;;6.33;;
651;SDS011;310;48.490;9.200;2022-08-04T03:34:53;9.77;;;7.50;;
651;SDS011;310;48.490;9.200;2022-08-04T03:57:12;7.87;;;6.10;;
651;SDS011;310;48.490;9.200;2022-08-04T04:05:30;7.73;;;5.63;;
651;SDS011;310;48.490;9.200;2022-08-04T04:11:04;11.10;;;6.00;;
651;SDS011;310;48.490;9.200;2022-08-04T04:19:24;8.60;;;5.93;;
651;SDS011;310;48.490;9.200;2022-08-04T04:27:32;16.10;;;7.10;;
651;SDS011;310;48.490;9.200;2022-08-04T04:30:04;9.50;;;6.30;;
651;SDS011;310;48.490;9.200;2022-08-04T04:35:20;15.30;;;6.60;;
651;SDS011;310;48.490;9.200;2022-08-04T04:51:48;8.33;;;6.60;;
651;SDS011;310;48.490;9.200;2022-08-04T04:54:27;14.00;;;7.97;;
651;SDS011;310;48.490;9.200;2022-08-04T04:57:15;16.97;;;6.33;;
651;SDS011;310;48.490;9.200;2022-08-04T04:59:55;12.27;;;6.30;;
651;SDS011;310;48.490;9.200;2022-08-04T05:16:06;15.67;;;6.70;;
651;SDS011;310;48.490;9.200;2022-08-04T05:18:39;10.47;;;6.70;;
651;SDS011;310;48.490;9.200;2022-08-04T05:21:55;7.53;;;5.90;;
651;SDS011;310;48.490;9.200;2022-08-04T05:23:53;14.50;;;5.80;;
651;SDS011;310;48.490;9.200;2022-08-04T05:26:25;8.93;;;5.57;;
651;SDS011;310;48.490;9.200;2022-08-04T05:28:56;12.30;;;6.00;;
651;SDS011;310;48.490;9.200;2022-08-04T05:31:25;9.77;;;5.77;;
651;SDS011;310;48.490;9.200;2022-08-04T05:34:06;17.40;;;8.30;;
651;SDS011;310;48.490;9.200;2022-08-04T05:36:37;13.80;;;8.70;;
651;SDS011;310;48.490;9.200;2022-08-04T05:39:06;31.03;;;11.90;;
651;SDS011;310;48.490;9.200;2022-08-04T05:41:37;22.47;;;10.60;;
651;SDS011;310;48.490;9.200;2022-08-04T05:44:04;23.60;;;10.10;;
651;SDS011;310;48.490;9.200;2022-08-04T05:46:33;19.77;;;10.80;;
651;SDS011;310;48.490;9.200;2022-08-04T05:49:00;22.77;;;10.70;;
651;SDS011;310;48.490;9.200;2022-08-04T05:51:27;26.47;;;13.13;;
651;SDS011;310;48.490;9.200;2022-08-04T05:53:54;42.73;;;12.83;;
651;SDS011;310;48.490;9.200;2022-08-04T05:56:22;18.20;;;10.20;;
651;SDS011;310;48.490;9.200;2022-08-04T05:58:48;23.17;;;9.43;;
651;SDS011;310;48.490;9.200;2022-08-04T06:01:16;13.03;;;6.93;;
651;SDS011;310;48.490;9.200;2022-08-04T06:03:44;17.77;;;9.43;;
651;SDS011;310;48.490;9.200;2022-08-04T06:06:11;14.73;;;7.10;;
651;SDS011;310;48.490;9.200;2022-08-04T06:08:38;15.47;;;6.80;;
651;SDS011;310;48.490;9.200;2022-08-04T06:11:04;16.37;;;7.40;;
651;SDS011;310;48.490;9.200;2022-08-04T06:13:47;13.53;;;6.17;;
651;SDS011;310;48.490;9.200;2022-08-04T06:16:22;10.77;;;6.00;;
651;SDS011;310;48.490;9.200;2022-08-04T06:18:49;18.53;;;5.97;;
651;SDS011;310;48.490;9.200;2022-08-04T06:21:18;13.93;;;6.80;;
651;SDS011;310;48.490;9.200;2022-08-04T06:23:47;23.27;;;8.13;;
651;SDS011;310;48.490;9.200;2022-08-04T06:26:14;22.20;;;6.93;;
651;SDS011;310;48.490;9.200;2022-08-04T06:28:47;10.30;;;5.80;;
651;SDS011;310;48.490;9.200;2022-08-04T06:31:15;12.70;;;6.77;;
651;SDS011;310;48.490;9.200;2022-08-04T06:33:57;13.93;;;6.30;;
651;SDS011;310;48.490;9.200;2022-08-04T06:36:26;16.93;;;6.53;;
651;SDS011;310;48.490;9.200;2022-08-04T06:38:54;18.97;;;6.57;;
651;SDS011;310;48.490;9.200;2022-08-04T06:41:25;14.47;;;6.17;;
651;SDS011;310;48.490;9.200;2022-08-04T06:43:53;17.00;;;5.90;;
651;SDS011;310;48.490;9.200;2022-08-04T06:46:19;12.90;;;7.13;;
651;SDS011;310;48.490;9.200;2022-08-04T06:48:45;13.00;;;6.57;;
651;SDS011;310;48.490;9.200;2022-08-04T06:51:12;12.40;;;6.03;;
651;SDS011;310;48.490;9.200;2022-08-04T06:53:38;23.40;;;7.30;;
651;SDS011;310;48.490;9.200;2022-08-04T06:56:04;13.73;;;6.70;;
651;SDS011;310;48.490;9.200;2022-08-04T06:58:32;17.27;;;6.60;;
651;SDS011;310;48.490;9.200;2022-08-04T07:00:59;19.67;;;7.60;;
651;SDS011;310;48.490;9.200;2022-08-04T07:03:27;11.40;;;5.70;;
651;SDS011;310;48.490;9.200;2022-08-04T07:05:53;10.60;;;5.30;;
651;SDS011;310;48.490;9.200;2022-08-04T07:08:20;11.73;;;5.33;;
651;SDS011;310;48.490;9.200;2022-08-04T07:10:46;13.90;;;6.37;;
651;SDS011;310;48.490;9.200;2022-08-04T07:13:12;10.90;;;5.50;;
651;SDS011;310;48.490;9.200;2022-08-04T07:15:40;32.07;;;5.67;;
651;SDS011;310;48.490;9.200;2022-08-04T07:18:08;10.00;;;4.90;;
651;SDS011;310;48.490;9.200;2022-08-04T07:20:34;12.60;;;5.67;;
651;SDS011;310;48.490;9.200;2022-08-04T07:23:00;20.03;;;5.30;;
651;SDS011;310;48.490;9.200;2022-08-04T07:25:26;16.27;;;6.00;;
651;SDS011;310;48.490;9.200;2022-08-04T07:27:52;11.87;;;5.37;;
651;SDS011;310;48.490;9.200;2022-08-04T07:30:17;21.37;;;6.33;;
651;SDS011;310;48.490;9.200;2022-08-04T07:32:43;17.53;;;6.50;;
651;SDS011;310;48.490;9.200;2022-08-04T07:35:11;14.80;;;6.70;;
651;SDS011;310;48.490;9.200;2022-08-04T07:37:37;11.53;;;6.40;;
651;SDS011;310;48.490;9.200;2022-08-04T07:40:03;11.70;;;6.13;;
651;SDS011;310;48.490;9.200;2022-08-04T07:42:30;15.70;;;6.00;;
651;SDS011;310;48.490;9.200;2022-08-04T07:44:55;10.40;;;5.70;;
651;SDS011;310;48.490;9.200;2022-08-04T07:47:22;17.00;;;6.50;;
651;SDS011;310;48.490;9.200;2022-08-04T07:49:48;11.80;;;5.50;;
651;SDS011;310;48.490;9.200;2022-08-04T07:52:14;14.80;;;5.80;;
651;SDS011;310;48.490;9.200;2022-08-04T07:54:40;10.10;;;5.73;;
651;SDS011;310;48.490;9.200;2022-08-04T07:57:06;10.80;;;6.10;;
651;SDS011;310;48.490;9.200;2022-08-04T07:59:32;11.47;;;5.57;;
651;SDS011;310;48.490;9.200;2022-08-04T08:02:00;23.17;;;5.93;;
651;SDS011;310;48.490;9.200;2022-08-04T08:04:29;13.23;;;6.00;;
651;SDS011;310;48.490;9.200;2022-08-04T08:06:56;12.00;;;6.30;;
651;SDS011;310;48.490;9.200;2022-08-04T08:09:22;12.70;;;5.87;;
651;SDS011;310;48.490;9.200;2022-08-04T08:11:49;13.40;;;6.17;;
651;SDS011;310;48.490;9.200;2022-08-04T08:14:17;22.23;;;5.87;;
651;SDS011;310;48.490;9.200;2022-08-04T08:16:44;7.10;;;4.73;;
651;SDS011;310;48.490;9.200;2022-08-04T08:19:10;10.20;;;4.90;;
651;SDS011;310;48.490;9.200;2022-08-04T08:21:37;9.63;;;5.13;;
651;SDS011;310;48.490;9.200;2022-08-04T08:24:03;10.50;;;6.10;;
651;SDS011;310;48.490;9.200;2022-08-04T08:26:29;13.33;;;5.60;;
651;SDS011;310;48.490;9.200;2022-08-04T08:28:55;14.77;;;7.07;;
651;SDS011;310;48.490;9.200;2022-08-04T08:31:21;11.83;;;5.40;;
651;SDS011;310;48.490;9.200;2022-08-04T08:33:47;9.13;;;5.53;;
651;SDS011;310;48.490;9.200;2022-08-04T08:36:35;14.60;;;6.10;;
651;SDS011;310;48.490;9.200;2022-08-04T08:39:09;13.83;;;5.17;;
651;SDS011;310;48.490;9.200;2022-08-04T08:58:45;14.83;;;7.50;;
651;SDS011;310;48.490;9.200;2022-08-04T09:02:05;10.23;;;5.90;;
651;SDS011;310;48.490;9.200;2022-08-04T09:07:45;9.07;;;4.80;;
651;SDS011;310;48.490;9.200;2022-08-04T09:16:16;8.50;;;4.80;;
651;SDS011;310;48.490;9.200;2022-08-04T09:24:10;9.63;;;5.40;;
651;SDS011;310;48.490;9.200;2022-08-04T09:29:32;7.30;;;4.80;;
651;SDS011;310;48.490;9.200;2022-08-04T09:32:10;9.83;;;5.20;;
651;SDS011;310;48.490;9.200;2022-08-04T09:40:10;13.60;;;5.70;;
651;SDS011;310;48.490;9.200;2022-08-04T09:45:37;11.47;;;5.00;;
651;SDS011;310;48.490;9.200;2022-08-04T09:48:16;19.27;;;5.10;;
651;SDS011;310;48.490;9.200;2022-08-04T09:50:57;11.90;;;5.53;;
651;SDS011;310;48.490;9.200;2022-08-04T09:53:35;7.57;;;4.67;;
651;SDS011;310;48.490;9.200;2022-08-04T10:01:34;6.80;;;4.53;;
651;SDS011;310;48.490;9.200;2022-08-04T10:04:03;8.10;;;4.97;;
651;SDS011;310;48.490;9.200;2022-08-04T10:09:41;6.43;;;4.70;;
651;SDS011;310;48.490;9.200;2022-08-04T10:12:28;12.70;;;4.80;;
651;SDS011;310;48.490;9.200;2022-08-04T10:15:05;7.90;;;4.30;;
651;SDS011;310;48.490;9.200;2022-08-04T10:20:47;7.60;;;4.17;;
651;SDS011;310;48.490;9.200;2022-08-04T10:26:24;9.77;;;3.97;;
651;SDS011;310;48.490;9.200;2022-08-04T10:31:28;8.57;;;3.93;;
651;SDS011;310;48.490;9.200;2022-08-04T10:34:02;6.17;;;3.80;;
651;SDS011;310;48.490;9.200;2022-08-04T10:36:43;8.63;;;4.43;;
651;SDS011;310;48.490;9.200;2022-08-04T10:39:21;4.80;;;3.57;;
651;SDS011;310;48.490;9.200;2022-08-04T10:42:28;6.57;;;3.90;;
651;SDS011;310;48.490;9.200;2022-08-04T10:45:38;7.67;;;3.97;;
651;SDS011;310;48.490;9.200;2022-08-04T10:50:42;6.30;;;4.00;;
651;SDS011;310;48.490;9.200;2022-08-04T10:53:17;11.07;;;4.80;;
651;SDS011;310;48.490;9.200;2022-08-04T10:55:51;9.13;;;3.93;;
651;SDS011;310;48.490;9.200;2022-08-04T10:58:31;9.27;;;3.70;;
651;SDS011;310;48.490;9.200;2022-08-04T11:01:04;7.93;;;4.10;;
651;SDS011;310;48.490;9.200;2022-08-04T11:03:37;9.93;;;4.83;;
651;SDS011;310;48.490;9.200;2022-08-04T11:06:09;10.07;;;4.70;;
651;SDS011;310;48.490;9.200;2022-08-04T11:08:43;9.63;;;4.40;;
651;SDS011;310;48.490;9.200;2022-08-04T11:11:11;5.83;;;3.57;;
651;SDS011;310;48.490;9.200;2022-08-04T11:13:48;6.63;;;3.90;;
651;SDS011;310;48.490;9.200;2022-08-04T11:16:25;7.70;;;4.27;;
651;SDS011;310;48.490;9.200;2022-08-04T11:19:05;9.53;;;4.30;;
651;SDS011;310;48.490;9.200;2022-08-04T11:21:33;6.70;;;3.90;;
651;SDS011;310;48.490;9.200;2022-08-04T11:24:15;4.40;;;3.40;;
651;SDS011;310;48.490;9.200;2022-08-04T11:29:28;8.47;;;4.67;;
651;SDS011;310;48.490;9.200;2022-08-04T11:32:02;6.77;;;4.30;;
651;SDS011;310;48.490;9.200;2022-08-04T11:34:32;9.20;;;4.60;;
651;SDS011;310;48.490;9.200;2022-08-04T11:39:50;12.70;;;4.23;;
651;SDS011;310;48.490;9.200;2022-08-04T11:42:33;7.80;;;3.80;;
651;SDS011;310;48.490;9.200;2022-08-04T11:45:06;4.43;;;3.43;;
651;SDS011;310;48.490;9.200;2022-08-04T11:47:39;10.67;;;4.17;;
651;SDS011;310;48.490;9.200;2022-08-04T11:50:22;7.30;;;3.80;;
651;SDS011;310;48.490;9.200;2022-08-04T11:53:09;10.33;;;3.80;;
651;SDS011;310;48.490;9.200;2022-08-04T11:55:40;5.03;;;3.13;;
651;SDS011;310;48.490;9.200;2022-08-04T11:58:08;9.07;;;4.00;;
651;SDS011;310;48.490;9.200;2022-08-04T12:00:35;6.60;;;3.50;;
651;SDS011;310;48.490;9.200;2022-08-04T12:09:10;6.43;;;3.63;;
651;SDS011;310;48.490;9.200;2022-08-04T12:14:20;5.37;;;3.50;;
651;SDS011;310;48.490;9.200;2022-08-04T12:17:11;7.57;;;3.83;;
651;SDS011;310;48.490;9.200;2022-08-04T12:19:52;7.10;;;3.57;;
651;SDS011;310;48.490;9.200;2022-08-04T12:22:21;9.17;;;3.90;;
651;SDS011;310;48.490;9.200;2022-08-04T12:24:52;9.47;;;4.17;;
651;SDS011;310;48.490;9.200;2022-08-04T12:27:24;7.53;;;3.90;;
651;SDS011;310;48.490;9.200;2022-08-04T12:29:55;6.13;;;3.60;;
651;SDS011;310;48.490;9.200;2022-08-04T12:32:23;10.10;;;4.10;;
651;SDS011;310;48.490;9.200;2022-08-04T12:37:47;8.17;;;3.77;;
651;SDS011;310;48.490;9.200;2022-08-04T12:40:32;6.77;;;3.00;;
651;SDS011;310;48.490;9.200;2022-08-04T12:43:23;8.33;;;3.70;;
651;SDS011;310;48.490;9.200;2022-08-04T12:45:55;7.20;;;3.67;;
651;SDS011;310;48.490;9.200;2022-08-04T12:48:28;6.10;;;2.97;;
651;SDS011;310;48.490;9.200;2022-08-04T12:50:56;11.73;;;4.40;;
651;SDS011;310;48.490;9.200;2022-08-04T12:53:31;8.63;;;3.40;;
651;SDS011;310;48.490;9.200;2022-08-04T12:55:59;6.83;;;3.63;;
651;SDS011;310;48.490;9.200;2022-08-04T12:58:27;7.10;;;3.80;;
651;SDS011;310;48.490;9.200;2022-08-04T13:00:59;31.67;;;9.03;;
651;SDS011;310;48.490;9.200;2022-08-04T13:03:28;14.00;;;4.60;;
651;SDS011;310;48.490;9.200;2022-08-04T13:06:02;9.20;;;3.70;;
651;SDS011;310;48.490;9.200;2022-08-04T13:08:30;16.37;;;4.80;;
651;SDS011;310;48.490;9.200;2022-08-04T13:11:02;9.47;;;3.83;;
651;SDS011;310;48.490;9.200;2022-08-04T13:13:30;9.70;;;4.00;;
651;SDS011;310;48.490;9.200;2022-08-04T13:15:59;12.43;;;4.27;;
651;SDS011;310;48.490;9.200;2022-08-04T13:18:30;18.40;;;5.30;;
651;SDS011;310;48.490;9.200;2022-08-04T13:21:07;18.47;;;5.73;;
651;SDS011;310;48.490;9.200;2022-08-04T13:23:47;16.10;;;4.87;;
651;SDS011;310;48.490;9.200;2022-08-04T13:26:18;15.10;;;4.47;;
651;SDS011;310;48.490;9.200;2022-08-04T13:28:48;11.63;;;3.60;;
651;SDS011;310;48.490;9.200;2022-08-04T13:31:18;7.20;;;3.43;;
651;SDS011;310;48.490;9.200;2022-08-04T13:33:46;12.27;;;4.27;;
651;SDS011;310;48.490;9.200;2022-08-04T13:36:14;16.67;;;4.53;;
651;SDS011;310;48.490;9.200;2022-08-04T13:38:56;10.10;;;3.97;;
651;SDS011;310;48.490;9.200;2022-08-04T13:41:23;18.43;;;4.20;;
651;SDS011;310;48.490;9.200;2022-08-04T13:43:53;16.10;;;4.30;;
651;SDS011;310;48.490;9.200;2022-08-04T13:46:23;13.30;;;4.23;;
651;SDS011;310;48.490;9.200;2022-08-04T13:48:51;9.57;;;3.83;;
651;SDS011;310;48.490;9.200;2022-08-04T13:51:18;10.10;;;4.17;;
651;SDS011;310;48.490;9.200;2022-08-04T13:53:45;11.77;;;4.30;;
651;SDS011;310;48.490;9.200;2022-08-04T13:56:19;12.27;;;4.03;;
651;SDS011;310;48.490;9.200;2022-08-04T13:58:46;12.43;;;4.27;;
651;SDS011;310;48.490;9.200;2022-08-04T14:01:18;23.50;;;4.50;;
651;SDS011;310;48.490;9.200;2022-08-04T14:06:15;16.83;;;4.70;;
651;SDS011;310;48.490;9.200;2022-08-04T14:08:53;15.00;;;4.30;;
651;SDS011;310;48.490;9.200;2022-08-04T14:11:29;10.33;;;4.03;;
651;SDS011;310;48.490;9.200;2022-08-04T14:13:56;13.87;;;4.43;;
651;SDS011;310;48.490;9.200;2022-08-04T14:16:22;14.33;;;3.97;;
651;SDS011;310;48.490;9.200;2022-08-04T14:18:56;11.53;;;3.97;;
651;SDS011;310;48.490;9.200;2022-08-04T14:21:24;10.63;;;4.03;;
651;SDS011;310;48.490;9.200;2022-08-04T14:28:46;11.83;;;4.10;;
651;SDS011;310;48.490;9.200;2022-08-04T14:31:13;12.10;;;4.17;;
651;SDS011;310;48.490;9.200;2022-08-04T14:33:41;11.40;;;3.63;;
651;SDS011;310;48.490;9.200;2022-08-04T14:36:07;11.73;;;3.97;;
651;SDS011;310;48.490;9.200;2022-08-04T14:38:56;6.50;;;3.40;;
651;SDS011;310;48.490;9.200;2022-08-04T14:43:52;18.27;;;4.87;;
651;SDS011;310;48.490;9.200;2022-08-04T14:46:20;15.83;;;3.60;;
651;SDS011;310;48.490;9.200;2022-08-04T14:48:59;11.43;;;4.27;;
651;SDS011;310;48.490;9.200;2022-08-04T14:51:32;18.87;;;5.27;;
651;SDS011;310;48.490;9.200;2022-08-04T14:53:58;14.07;;;4.00;;
651;SDS011;310;48.490;9.200;2022-08-04T14:56:25;14.27;;;4.07;;
651;SDS011;310;48.490;9.200;2022-08-04T14:58:57;10.27;;;4.03;;
651;SDS011;310;48.490;9.200;2022-08-04T15:01:28;11.73;;;4.70;;
651;SDS011;310;48.490;9.200;2022-08-04T15:03:54;14.63;;;4.37;;
651;SDS011;310;48.490;9.200;2022-08-04T15:06:22;17.53;;;4.17;;
651;SDS011;310;48.490;9.200;2022-08-04T15:08:51;11.60;;;3.90;;
651;SDS011;310;48.490;9.200;2022-08-04T15:11:17;11.73;;;4.10;;
651;SDS011;310;48.490;9.200;2022-08-04T15:13:43;12.17;;;4.10;;
651;SDS011;310;48.490;9.200;2022-08-04T15:16:10;11.17;;;4.20;;
651;SDS011;310;48.490;9.200;2022-08-04T15:18:36;13.50;;;4.37;;
651;SDS011;310;48.490;9.200;2022-08-04T15:21:02;14.53;;;4.33;;
651;SDS011;310;48.490;9.200;2022-08-04T15:23:29;14.43;;;4.40;;
651;SDS011;310;48.490;9.200;2022-08-04T15:25:55;11.90;;;3.93;;
651;SDS011;310;48.490;9.200;2022-08-04T15:28:26;12.30;;;4.00;;
651;SDS011;310;48.490;9.200;2022-08-04T15:30:53;18.60;;;5.73;;
651;SDS011;310;48.490;9.200;2022-08-04T15:33:19;16.70;;;5.30;;
651;SDS011;310;48.490;9.200;2022-08-04T15:35:49;18.43;;;4.67;;
651;SDS011;310;48.490;9.200;2022-08-04T15:38:26;13.00;;;4.30;;
651;SDS011;310;48.490;9.200;2022-08-04T15:40:56;21.30;;;6.23;;
651;SDS011;310;48.490;9.200;2022-08-04T15:45:59;24.47;;;5.20;;
651;SDS011;310;48.490;9.200;2022-08-04T15:48:28;16.50;;;4.70;;
651;SDS011;310;48.490;9.200;2022-08-04T15:53:24;13.70;;;5.67;;
651;SDS011;310;48.490;9.200;2022-08-04T15:55:50;11.87;;;4.13;;
651;SDS011;310;48.490;9.200;2022-08-04T15:58:16;14.33;;;4.40;;
651;SDS011;310;48.490;9.200;2022-08-04T16:08:56;14.67;;;4.37;;
651;SDS011;310;48.490;9.200;2022-08-04T16:19:06;15.97;;;4.50;;
651;SDS011;310;48.490;9.200;2022-08-04T16:21:33;14.87;;;4.50;;
651;SDS011;310;48.490;9.200;2022-08-04T16:34:39;14.83;;;5.20;;
651;SDS011;310;48.490;9.200;2022-08-04T16:37:09;14.20;;;4.90;;
651;SDS011;310;48.490;9.200;2022-08-04T16:39:36;17.20;;;4.63;;
651;SDS011;310;48.490;9.200;2022-08-04T16:50:13;19.63;;;5.67;;
651;SDS011;310;48.490;9.200;2022-08-04T16:52:58;23.80;;;6.77;;
651;SDS011;310;48.490;9.200;2022-08-04T16:55:25;17.47;;;4.90;;
651;SDS011;310;48.490;9.200;2022-08-04T16:57:53;23.00;;;6.10;;
651;SDS011;310;48.490;9.200;2022-08-04T17:00:27;19.23;;;5.40;;
651;SDS011;310;48.490;9.200;2022-08-04T17:03:01;25.60;;;6.70;;
651;SDS011;310;48.490;9.200;2022-08-04T17:05:28;16.57;;;4.83;;
651;SDS011;310;48.490;9.200;2022-08-04T17:07:54;41.00;;;5.30;;
651;SDS011;310;48.490;9.200;2022-08-04T17:10:43;13.93;;;4.53;;
651;SDS011;310;48.490;9.200;2022-08-04T17:13:29;10.93;;;4.70;;
651;SDS011;310;48.490;9.200;2022-08-04T17:16:00;14.30;;;4.47;;
651;SDS011;310;48.490;9.200;2022-08-04T17:18:30;11.87;;;4.40;;
651;SDS011;310;48.490;9.200;2022-08-04T17:20:59;22.53;;;6.43;;
651;SDS011;310;48.490;9.200;2022-08-04T17:23:46;16.77;;;5.90;;
651;SDS011;310;48.490;9.200;2022-08-04T17:26:16;13.53;;;4.73;;
651;SDS011;310;48.490;9.200;2022-08-04T17:28:46;10.83;;;4.40;;
651;SDS011;310;48.490;9.200;2022-08-04T17:31:12;11.30;;;4.77;;
651;SDS011;310;48.490;9.200;2022-08-04T17:33:39;16.50;;;5.00;;
651;SDS011;310;48.490;9.200;2022-08-04T17:36:09;18.83;;;6.13;;
651;SDS011;310;48.490;9.200;2022-08-04T17:38:43;11.83;;;4.83;;
651;SDS011;310;48.490;9.200;2022-08-04T17:41:11;19.23;;;5.60;;
651;SDS011;310;48.490;9.200;2022-08-04T17:51:31;15.70;;;5.57;;
651;SDS011;310;48.490;9.200;2022-08-04T17:53:59;18.20;;;6.70;;
651;SDS011;310;48.490;9.200;2022-08-04T17:56:26;21.30;;;6.10;;
651;SDS011;310;48.490;9.200;2022-08-04T17:59:08;16.23;;;5.37;;
651;SDS011;310;48.490;9.200;2022-08-04T18:01:40;14.87;;;5.17;;
651;SDS011;310;48.490;9.200;2022-08-04T18:04:27;20.70;;;5.90;;
651;SDS011;310;48.490;9.200;2022-08-04T18:06:54;22.57;;;6.23;;
651;SDS011;310;48.490;9.200;2022-08-04T18:09:21;16.80;;;5.70;;
651;SDS011;310;48.490;9.200;2022-08-04T18:11:52;13.87;;;6.03;;
651;SDS011;310;48.490;9.200;2022-08-04T18:14:18;14.37;;;5.57;;
651;SDS011;310;48.490;9.200;2022-08-04T18:16:44;10.67;;;5.43;;
651;SDS011;310;48.490;9.200;2022-08-04T18:19:11;16.37;;;5.90;;
651;SDS011;310;48.490;9.200;2022-08-04T18:21:38;19.00;;;5.43;;
651;SDS011;310;48.490;9.200;2022-08-04T18:24:04;18.13;;;6.63;;
651;SDS011;310;48.490;9.200;2022-08-04T18:26:30;14.20;;;5.77;;
651;SDS011;310;48.490;9.200;2022-08-04T18:28:56;13.90;;;5.50;;
651;SDS011;310;48.490;9.200;2022-08-04T18:31:23;26.50;;;7.60;;
651;SDS011;310;48.490;9.200;2022-08-04T18:33:49;24.90;;;6.60;;
651;SDS011;310;48.490;9.200;2022-08-04T18:36:15;21.77;;;6.20;;
651;SDS011;310;48.490;9.200;2022-08-04T18:38:41;20.63;;;6.30;;
651;SDS011;310;48.490;9.200;2022-08-04T18:41:07;16.37;;;6.40;;
651;SDS011;310;48.490;9.200;2022-08-04T18:43:33;17.53;;;6.30;;
651;SDS011;310;48.490;9.200;2022-08-04T18:45:59;26.27;;;7.20;;
651;SDS011;310;48.490;9.200;2022-08-04T18:48:26;31.37;;;7.83;;
651;SDS011;310;48.490;9.200;2022-08-04T18:50:52;36.70;;;9.50;;
651;SDS011;310;48.490;9.200;2022-08-04T18:53:19;15.13;;;6.67;;
651;SDS011;310;48.490;9.200;2022-08-04T18:55:45;27.93;;;6.63;;
651;SDS011;310;48.490;9.200;2022-08-04T18:58:10;15.87;;;6.20;;
651;SDS011;310;48.490;9.200;2022-08-04T19:00:36;33.13;;;8.47;;
651;SDS011;310;48.490;9.200;2022-08-04T19:03:03;14.97;;;6.83;;
651;SDS011;310;48.490;9.200;2022-08-04T19:05:29;11.60;;;6.20;;
651;SDS011;310;48.490;9.200;2022-08-04T19:07:55;13.43;;;6.43;;
651;SDS011;310;48.490;9.200;2022-08-04T19:10:20;14.07;;;6.50;;
651;SDS011;310;48.490;9.200;2022-08-04T19:12:46;17.73;;;7.27;;
651;SDS011;310;48.490;9.200;2022-08-04T19:15:12;18.50;;;6.40;;
651;SDS011;310;48.490;9.200;2022-08-04T19:17:38;14.87;;;6.20;;
651;SDS011;310;48.490;9.200;2022-08-04T19:20:04;11.80;;;6.43;;
651;SDS011;310;48.490;9.200;2022-08-04T19:22:30;15.43;;;6.20;;
651;SDS011;310;48.490;9.200;2022-08-04T19:24:56;12.40;;;6.43;;
651;SDS011;310;48.490;9.200;2022-08-04T19:27:22;19.20;;;6.33;;
651;SDS011;310;48.490;9.200;2022-08-04T19:29:49;27.13;;;6.13;;
651;SDS011;310;48.490;9.200;2022-08-04T19:32:15;20.50;;;8.57;;
651;SDS011;310;48.490;9.200;2022-08-04T19:34:44;16.93;;;6.80;;
651;SDS011;310;48.490;9.200;2022-08-04T19:37:10;19.63;;;7.00;;
651;SDS011;310;48.490;9.200;2022-08-04T19:39:37;16.13;;;6.73;;
651;SDS011;310;48.490;9.200;2022-08-04T19:42:03;10.03;;;6.07;;
651;SDS011;310;48.490;9.200;2022-08-04T19:44:28;18.10;;;7.20;;
651;SDS011;310;48.490;9.200;2022-08-04T19:46:54;14.87;;;6.60;;
651;SDS011;310;48.490;9.200;2022-08-04T19:49:19;11.33;;;6.30;;
651;SDS011;310;48.490;9.200;2022-08-04T19:51:45;17.63;;;7.57;;
651;SDS011;310;48.490;9.200;2022-08-04T19:54:12;10.67;;;6.20;;
651;SDS011;310;48.490;9.200;2022-08-04T19:56:38;14.87;;;6.97;;
651;SDS011;310;48.490;9.200;2022-08-04T19:59:04;13.77;;;7.40;;
651;SDS011;310;48.490;9.200;2022-08-04T20:01:30;10.10;;;6.43;;
651;SDS011;310;48.490;9.200;2022-08-04T20:03:56;14.87;;;6.50;;
651;SDS011;310;48.490;9.200;2022-08-04T20:06:21;10.73;;;6.50;;
651;SDS011;310;48.490;9.200;2022-08-04T20:08:48;14.30;;;6.40;;
651;SDS011;310;48.490;9.200;2022-08-04T20:11:13;13.70;;;6.77;;
651;SDS011;310;48.490;9.200;2022-08-04T20:13:40;19.17;;;7.27;;
651;SDS011;310;48.490;9.200;2022-08-04T20:16:06;14.13;;;6.60;;
651;SDS011;310;48.490;9.200;2022-08-04T20:18:32;18.20;;;6.77;;
651;SDS011;310;48.490;9.200;2022-08-04T20:20:57;28.10;;;10.30;;
651;SDS011;310;48.490;9.200;2022-08-04T20:23:24;17.60;;;7.33;;
651;SDS011;310;48.490;9.200;2022-08-04T20:25:50;14.93;;;6.90;;
651;SDS011;310;48.490;9.200;2022-08-04T20:28:15;14.63;;;6.87;;
651;SDS011;310;48.490;9.200;2022-08-04T20:30:41;13.63;;;7.40;;
651;SDS011;310;48.490;9.200;2022-08-04T20:33:09;12.50;;;7.13;;
651;SDS011;310;48.490;9.200;2022-08-04T20:35:35;11.70;;;6.70;;
651;SDS011;310;48.490;9.200;2022-08-04T20:38:01;12.27;;;6.63;;
651;SDS011;310;48.490;9.200;2022-08-04T20:40:27;15.30;;;7.83;;